Time;durP1;ratioP1;P1;durP2;ratioP2;P2;SDS_P1;SDS_P2;PMS_P1;PMS_P2;Temp;Humidity;BMP_temperature;BMP_pressure;BME280_temperature;BME280_humidity;BME280_pressure;Samples;Min_cycle;Max_cycle;Signal;HPM_P1;HPM_P2
2023/09/15 00:00:49;;;;;;;14.40;8.20;;;;;;;;;;2613153;39;21034;-84
2023/09/15 00:06:19;;;;;;;10.53;8.20;;;;;;;;;;2612176;54;20483;-84
2023/09/15 00:11:50;;;;;;;10.13;8.37;;;;;;;;;;2612546;54;20379;-84
2023/09/15 00:17:20;;;;;;;9.37;8.10;;;;;;;;;;2612502;54;20386;-84
2023/09/15 00:22:50;;;;;;;12.30;8.90;;;;;;;;;;2612585;54;20390;-83
2023/09/15 00:28:20;;;;;;;10.10;8.43;;;;;;;;;;2611499;54;20853;-81
2023/09/15 00:33:50;;;;;;;9.83;8.83;;;;;;;;;;2613313;54;20390;-81
2023/09/15 00:39:20;;;;;;;11.27;10.03;;;;;;;;;;2612792;54;20432;-81
2023/09/15 00:41:52;;;;;;;12.20;9.23;;;;;;;;;;2613139;54;20427;-83
2023/09/15 00:44:18;;;;;;;15.07;8.53;;;;;;;;;;2613292;46;20865;-85
2023/09/15 00:49:47;;;;;;;9.77;8.87;;;;;;;;;;2614461;54;20988;-78
2023/09/15 00:55:22;;;;;;;17.67;11.00;;;;;;;;;;2614245;54;21008;-80
2023/09/15 01:00:52;;;;;;;10.67;9.47;;;;;;;;;;2614139;54;20420;-77
2023/09/15 01:06:22;;;;;;;12.23;9.60;;;;;;;;;;2615654;54;20377;-77
2023/09/15 01:11:52;;;;;;;13.77;9.33;;;;;;;;;;2616829;54;20390;-77
2023/09/15 01:17:24;;;;;;;12.87;9.73;;;;;;;;;;2616707;39;20822;-77
2023/09/15 01:22:57;;;;;;;12.93;9.60;;;;;;;;;;2616451;54;20379;-76
2023/09/15 01:34:46;;;;;;;10.80;8.70;;;;;;;;;;2615687;54;20384;-77
2023/09/15 01:40:15;;;;;;;11.17;10.00;;;;;;;;;;2615692;54;20387;-77
2023/09/15 01:49:20;;;;;;;12.17;9.43;;;;;;;;;;2616465;54;20403;-77
2023/09/15 01:54:54;;;;;;;10.47;9.37;;;;;;;;;;2616384;54;20443;-77
2023/09/15 02:00:24;;;;;;;10.20;9.17;;;;;;;;;;2614799;54;20411;-83
2023/09/15 02:05:54;;;;;;;11.33;10.23;;;;;;;;;;2613094;54;20411;-82
2023/09/15 02:11:24;;;;;;;10.10;9.00;;;;;;;;;;2615659;54;20399;-80
2023/09/15 02:16:53;;;;;;;12.60;9.50;;;;;;;;;;2618059;54;20385;-84
2023/09/15 02:22:23;;;;;;;10.93;8.70;;;;;;;;;;2617804;54;20412;-85
2023/09/15 02:27:53;;;;;;;15.33;11.50;;;;;;;;;;2619487;54;20378;-86
2023/09/15 02:33:23;;;;;;;11.10;10.10;;;;;;;;;;2619728;54;20429;-80
2023/09/15 02:38:54;;;;;;;13.63;10.43;;;;;;;;;;2616830;54;20359;-83
2023/09/15 02:44:24;;;;;;;13.73;9.97;;;;;;;;;;2615853;54;20410;-83
2023/09/15 02:49:53;;;;;;;10.83;9.73;;;;;;;;;;2615936;54;20540;-82
2023/09/15 02:55:23;;;;;;;14.57;10.73;;;;;;;;;;2616204;54;20514;-83
2023/09/15 02:58:08;;;;;;;9.73;8.80;;;;;;;;;;2616014;54;20408;-83
2023/09/15 03:00:34;;;;;;;12.77;9.80;;;;;;;;;;2616984;39;20860;-80
2023/09/15 03:06:05;;;;;;;13.63;10.10;;;;;;;;;;2616388;54;20428;-81
2023/09/15 03:11:35;;;;;;;10.93;9.27;;;;;;;;;;2613965;54;20499;-76
2023/09/15 03:17:04;;;;;;;9.67;8.77;;;;;;;;;;2615228;54;20390;-75
2023/09/15 03:22:34;;;;;;;12.40;10.90;;;;;;;;;;2615183;54;20386;-76
2023/09/15 03:28:03;;;;;;;12.10;10.77;;;;;;;;;;2615534;54;20423;-75
2023/09/15 03:33:33;;;;;;;15.33;10.40;;;;;;;;;;2616061;54;20467;-74
2023/09/15 03:39:03;;;;;;;10.90;9.90;;;;;;;;;;2616428;54;20358;-73
2023/09/15 03:44:33;;;;;;;12.67;11.40;;;;;;;;;;2616235;54;20367;-74
2023/09/15 03:53:40;;;;;;;15.17;11.40;;;;;;;;;;2615995;39;20756;-75
2023/09/15 03:59:10;;;;;;;12.50;10.97;;;;;;;;;;2615333;54;20923;-75
2023/09/15 04:04:39;;;;;;;20.50;10.53;;;;;;;;;;2615879;54;20362;-74
2023/09/15 04:10:09;;;;;;;11.47;10.37;;;;;;;;;;2616758;54;20387;-76
2023/09/15 04:15:39;;;;;;;15.80;10.87;;;;;;;;;;2616866;54;20366;-76
2023/09/15 04:21:09;;;;;;;19.57;10.43;;;;;;;;;;2615412;54;20375;-77
2023/09/15 04:26:40;;;;;;;14.43;12.23;;;;;;;;;;2617445;54;20422;-78
2023/09/15 04:32:09;;;;;;;18.87;14.00;;;;;;;;;;2617404;39;20480;-76
2023/09/15 04:37:39;;;;;;;13.90;11.97;;;;;;;;;;2616318;54;20419;-77
2023/09/15 04:43:09;;;;;;;11.97;10.73;;;;;;;;;;2616624;54;20429;-76
2023/09/15 04:48:39;;;;;;;15.47;10.50;;;;;;;;;;2616743;54;20379;-76
2023/09/15 04:54:09;;;;;;;11.93;10.70;;;;;;;;;;2614846;54;20515;-76
2023/09/15 04:59:39;;;;;;;13.53;12.13;;;;;;;;;;2614915;54;20379;-78
2023/09/15 05:05:09;;;;;;;16.10;12.67;;;;;;;;;;2615922;39;20818;-74
2023/09/15 05:10:38;;;;;;;15.60;12.47;;;;;;;;;;2614846;54;20447;-74
2023/09/15 05:16:08;;;;;;;14.07;12.33;;;;;;;;;;2614300;54;20984;-74
2023/09/15 05:21:38;;;;;;;13.10;11.70;;;;;;;;;;2615804;54;20395;-73
2023/09/15 05:27:08;;;;;;;12.37;10.50;;;;;;;;;;2616067;54;20410;-74
2023/09/15 05:32:37;;;;;;;20.07;16.57;;;;;;;;;;2609006;54;20411;-74
2023/09/15 05:38:07;;;;;;;15.27;13.30;;;;;;;;;;2613876;54;20967;-74
2023/09/15 05:43:37;;;;;;;15.57;12.43;;;;;;;;;;2613855;54;21662;-74
2023/09/15 05:49:07;;;;;;;14.57;13.03;;;;;;;;;;2615208;54;20433;-74
2023/09/15 05:54:36;;;;;;;13.70;11.97;;;;;;;;;;2614806;54;20478;-75
2023/09/15 06:00:06;;;;;;;19.60;11.67;;;;;;;;;;2613718;54;20415;-74
2023/09/15 06:05:36;;;;;;;13.70;12.20;;;;;;;;;;2614971;54;20391;-73
2023/09/15 06:11:06;;;;;;;13.23;10.90;;;;;;;;;;2614598;54;20375;-73
2023/09/15 06:16:36;;;;;;;17.40;11.87;;;;;;;;;;2615728;54;20387;-73
2023/09/15 06:22:06;;;;;;;15.93;10.13;;;;;;;;;;2614727;54;20396;-75
2023/09/15 06:27:36;;;;;;;11.70;8.77;;;;;;;;;;2614740;54;20387;-75
2023/09/15 06:33:05;;;;;;;15.87;10.60;;;;;;;;;;2614826;54;20395;-74
2023/09/15 06:38:35;;;;;;;14.40;11.30;;;;;;;;;;2613842;54;20422;-74
2023/09/15 06:44:05;;;;;;;14.80;12.03;;;;;;;;;;2614904;39;20738;-74
2023/09/15 06:49:36;;;;;;;14.50;13.33;;;;;;;;;;2615089;39;20778;-75
2023/09/15 06:58:43;;;;;;;14.93;13.50;;;;;;;;;;2614146;54;20447;-74
2023/09/15 07:04:13;;;;;;;15.47;14.13;;;;;;;;;;2614451;39;20763;-75
2023/09/15 07:09:42;;;;;;;15.77;14.27;;;;;;;;;;2612910;54;20379;-75
2023/09/15 07:15:13;;;;;;;15.23;13.83;;;;;;;;;;2614357;54;20359;-77
2023/09/15 07:20:43;;;;;;;15.80;14.37;;;;;;;;;;2614286;54;20438;-73
2023/09/15 07:26:14;;;;;;;25.83;16.30;;;;;;;;;;2614431;54;20534;-74
2023/09/15 07:31:44;;;;;;;14.87;13.93;;;;;;;;;;2614474;54;20910;-74
2023/09/15 07:37:13;;;;;;;15.97;14.60;;;;;;;;;;2614359;54;20390;-73
2023/09/15 07:42:43;;;;;;;14.90;13.90;;;;;;;;;;2615078;54;20380;-74
2023/09/15 07:48:12;;;;;;;15.90;14.80;;;;;;;;;;2614450;54;20394;-73
2023/09/15 07:50:58;;;;;;;15.97;14.57;;;;;;;;;;2614174;54;20958;-75
2023/09/15 07:53:25;;;;;;;16.07;14.97;;;;;;;;;;2614418;54;20524;-80
2023/09/15 08:02:36;;;;;;;15.63;14.10;;;;;;;;;;2615550;54;20410;-77
2023/09/15 08:08:06;;;;;;;15.23;13.80;;;;;;;;;;2616183;54;20439;-78
2023/09/15 08:13:36;;;;;;;14.67;13.67;;;;;;;;;;2614716;54;20395;-80
2023/09/15 08:19:06;;;;;;;14.10;13.20;;;;;;;;;;2615323;54;20414;-79
2023/09/15 08:24:37;;;;;;;16.57;14.90;;;;;;;;;;2615588;54;20410;-80
2023/09/15 08:30:11;;;;;;;14.93;13.97;;;;;;;;;;2614336;54;20400;-82
2023/09/15 08:35:41;;;;;;;21.10;19.00;;;;;;;;;;2613746;54;20383;-81
2023/09/15 08:41:20;;;;;;;15.10;14.00;;;;;;;;;;2613757;54;20514;-80
2023/09/15 08:46:50;;;;;;;16.13;14.87;;;;;;;;;;2614260;54;20446;-79
2023/09/15 08:52:20;;;;;;;13.70;12.37;;;;;;;;;;2614301;54;20418;-80
2023/09/15 08:57:50;;;;;;;16.17;14.87;;;;;;;;;;2614096;54;20383;-80
2023/09/15 09:03:23;;;;;;;14.80;13.60;;;;;;;;;;2614813;54;20437;-79
2023/09/15 09:08:52;;;;;;;18.00;15.00;;;;;;;;;;2613901;54;20391;-80
2023/09/15 09:14:22;;;;;;;13.00;11.97;;;;;;;;;;2615143;54;20395;-79
2023/09/15 09:19:52;;;;;;;13.63;12.67;;;;;;;;;;2614313;54;20399;-79
2023/09/15 09:25:26;;;;;;;13.63;12.60;;;;;;;;;;2614929;54;20428;-80
2023/09/15 09:30:56;;;;;;;13.40;12.23;;;;;;;;;;2614491;54;20423;-79
2023/09/15 09:36:26;;;;;;;12.83;11.83;;;;;;;;;;2614711;54;20383;-80
2023/09/15 09:41:56;;;;;;;12.83;12.10;;;;;;;;;;2611527;54;20415;-79
2023/09/15 09:47:26;;;;;;;14.20;13.33;;;;;;;;;;2611842;54;20387;-80
2023/09/15 09:52:55;;;;;;;12.80;12.10;;;;;;;;;;2613558;39;20700;-80
2023/09/15 09:58:25;;;;;;;13.37;12.63;;;;;;;;;;2613926;54;20399;-80
2023/09/15 10:07:33;;;;;;;14.07;13.30;;;;;;;;;;2613129;39;21010;-79
2023/09/15 10:13:03;;;;;;;13.87;13.17;;;;;;;;;;2615124;54;20431;-79
2023/09/15 10:18:33;;;;;;;13.63;13.00;;;;;;;;;;2613167;54;20424;-80
2023/09/15 10:24:07;;;;;;;12.90;12.30;;;;;;;;;;2613385;31;20803;-79
2023/09/15 10:29:37;;;;;;;14.30;13.33;;;;;;;;;;2612639;54;20383;-79
2023/09/15 10:35:08;;;;;;;13.70;12.90;;;;;;;;;;2612270;54;20440;-78
2023/09/15 10:40:43;;;;;;;13.20;12.40;;;;;;;;;;2610950;54;20447;-79
2023/09/15 10:46:13;;;;;;;15.20;14.10;;;;;;;;;;2615831;54;20375;-80
2023/09/15 10:51:56;;;;;;;13.50;12.70;;;;;;;;;;2614084;54;20382;-81
2023/09/15 10:57:26;;;;;;;13.20;12.60;;;;;;;;;;2613892;54;20391;-80
2023/09/15 11:02:56;;;;;;;13.50;12.80;;;;;;;;;;2614762;54;20498;-79
2023/09/15 11:08:26;;;;;;;13.87;13.17;;;;;;;;;;2614297;54;20442;-82
2023/09/15 11:13:56;;;;;;;14.53;13.60;;;;;;;;;;2612967;54;20395;-81
2023/09/15 11:19:30;;;;;;;14.17;13.47;;;;;;;;;;2613991;54;20467;-80
2023/09/15 11:24:59;;;;;;;14.17;13.37;;;;;;;;;;2613806;54;20459;-82
2023/09/15 11:30:30;;;;;;;13.73;13.03;;;;;;;;;;2614789;54;20495;-81
2023/09/15 11:36:00;;;;;;;14.40;13.37;;;;;;;;;;2614040;54;20411;-78
2023/09/15 11:41:30;;;;;;;14.63;13.63;;;;;;;;;;2614853;54;20949;-80
2023/09/15 11:47:01;;;;;;;13.77;12.87;;;;;;;;;;2615056;54;20391;-81
2023/09/15 11:52:31;;;;;;;13.00;12.40;;;;;;;;;;2614747;54;20432;-80
2023/09/15 11:58:00;;;;;;;13.50;12.70;;;;;;;;;;2615156;39;20513;-77
2023/09/15 12:03:31;;;;;;;13.13;12.43;;;;;;;;;;2613798;54;20408;-81
2023/09/15 12:12:36;;;;;;;14.13;13.27;;;;;;;;;;2614397;54;20936;-81
2023/09/15 12:18:06;;;;;;;13.50;12.73;;;;;;;;;;2613824;54;20394;-81
2023/09/15 12:23:35;;;;;;;12.57;12.00;;;;;;;;;;2612619;54;20427;-80
2023/09/15 12:29:05;;;;;;;13.70;13.10;;;;;;;;;;2615243;54;20382;-81
2023/09/15 12:34:37;;;;;;;14.50;13.57;;;;;;;;;;2615907;54;20412;-74
2023/09/15 12:40:07;;;;;;;13.63;12.73;;;;;;;;;;2615538;54;20896;-74
2023/09/15 12:45:36;;;;;;;13.57;12.83;;;;;;;;;;2615277;54;20387;-74
2023/09/15 12:51:05;;;;;;;13.37;12.67;;;;;;;;;;2616843;31;20874;-75
2023/09/15 12:56:35;;;;;;;13.33;12.63;;;;;;;;;;2614820;54;20359;-75
2023/09/15 13:02:05;;;;;;;14.07;13.10;;;;;;;;;;2611196;39;20750;-74
2023/09/15 13:07:42;;;;;;;14.37;13.67;;;;;;;;;;2613120;54;20390;-75
2023/09/15 13:13:11;;;;;;;13.73;12.93;;;;;;;;;;2610109;54;21103;-74
2023/09/15 13:18:40;;;;;;;13.90;13.20;;;;;;;;;;2611711;54;20448;-74
2023/09/15 13:24:09;;;;;;;13.70;13.00;;;;;;;;;;2611303;54;20383;-75
2023/09/15 13:29:38;;;;;;;13.50;12.90;;;;;;;;;;2609455;54;20398;-76
2023/09/15 13:35:08;;;;;;;13.77;12.97;;;;;;;;;;2614559;54;20376;-75
2023/09/15 13:40:37;;;;;;;13.57;12.90;;;;;;;;;;2613671;54;20387;-73
2023/09/15 13:46:08;;;;;;;13.07;12.43;;;;;;;;;;2615793;39;20835;-78
2023/09/15 13:48:53;;;;;;;13.77;13.07;;;;;;;;;;2614868;54;20933;-78
2023/09/15 13:51:19;;;;;;;13.10;12.50;;;;;;;;;;2615204;47;20423;-79
2023/09/15 13:56:48;;;;;;;13.27;12.70;;;;;;;;;;2614886;54;20420;-80
2023/09/15 14:02:18;;;;;;;14.10;13.10;;;;;;;;;;2615633;54;20412;-79
2023/09/15 14:07:50;;;;;;;14.77;13.50;;;;;;;;;;2615691;39;20734;-76
2023/09/15 14:13:21;;;;;;;14.30;13.50;;;;;;;;;;2614042;54;20423;-77
2023/09/15 14:18:51;;;;;;;13.50;12.90;;;;;;;;;;2611835;39;20870;-78
2023/09/15 14:24:23;;;;;;;13.80;13.20;;;;;;;;;;2614115;54;20438;-79
2023/09/15 14:29:53;;;;;;;13.33;12.77;;;;;;;;;;2614479;54;20394;-79
2023/09/15 14:35:22;;;;;;;14.33;13.53;;;;;;;;;;2614640;46;20391;-79
2023/09/15 14:40:52;;;;;;;13.80;13.00;;;;;;;;;;2614307;54;20423;-79
2023/09/15 14:46:22;;;;;;;14.00;13.40;;;;;;;;;;2614990;54;20399;-79
2023/09/15 14:51:52;;;;;;;13.50;12.90;;;;;;;;;;2615103;54;20421;-79
2023/09/15 14:57:21;;;;;;;13.60;13.10;;;;;;;;;;2615613;54;20395;-79
2023/09/15 15:00:06;;;;;;;13.30;12.70;;;;;;;;;;2612520;54;20407;-79
2023/09/15 15:02:32;;;;;;;13.50;12.90;;;;;;;;;;2612875;54;20429;-79
2023/09/15 15:08:02;;;;;;;13.60;13.03;;;;;;;;;;2612995;54;20403;-78
2023/09/15 15:13:32;;;;;;;13.40;12.80;;;;;;;;;;2612874;54;20398;-79
2023/09/15 15:19:03;;;;;;;13.90;13.27;;;;;;;;;;2614547;54;20395;-78
2023/09/15 15:24:32;;;;;;;22.20;20.00;;;;;;;;;;2615299;54;20380;-79
2023/09/15 15:30:02;;;;;;;14.10;13.50;;;;;;;;;;2614514;54;20525;-79
2023/09/15 15:35:33;;;;;;;13.70;13.10;;;;;;;;;;2614948;54;20928;-79
2023/09/15 15:41:04;;;;;;;13.70;13.10;;;;;;;;;;2615068;54;20479;-80
2023/09/15 15:46:33;;;;;;;13.70;13.10;;;;;;;;;;2614152;54;20912;-79
2023/09/15 15:52:03;;;;;;;14.63;13.83;;;;;;;;;;2615527;54;20374;-79
2023/09/15 15:57:33;;;;;;;14.53;13.87;;;;;;;;;;2616343;46;20385;-80
2023/09/15 16:03:03;;;;;;;14.70;13.77;;;;;;;;;;2614416;54;20391;-80
2023/09/15 16:14:40;;;;;;;14.20;13.43;;;;;;;;;;2614126;54;20983;-74
2023/09/15 16:20:10;;;;;;;13.70;13.10;;;;;;;;;;2613883;54;20391;-74
2023/09/15 16:25:40;;;;;;;13.30;12.70;;;;;;;;;;2614343;54;20518;-74
2023/09/15 16:31:11;;;;;;;13.30;12.70;;;;;;;;;;2614506;54;21088;-75
2023/09/15 16:36:40;;;;;;;13.70;13.10;;;;;;;;;;2612634;54;20415;-73
2023/09/15 16:42:12;;;;;;;13.17;12.57;;;;;;;;;;2615331;54;20373;-74
2023/09/15 16:47:42;;;;;;;13.53;12.70;;;;;;;;;;2614285;54;20409;-72
2023/09/15 16:53:12;;;;;;;14.57;13.60;;;;;;;;;;2614306;54;20386;-75
2023/09/15 16:58:41;;;;;;;13.73;13.13;;;;;;;;;;2616026;54;20387;-74
2023/09/15 17:04:11;;;;;;;13.07;12.47;;;;;;;;;;2615612;54;20408;-75
2023/09/15 17:15:49;;;;;;;15.20;14.30;;;;;;;;;;2616922;54;20379;-75
2023/09/15 17:21:19;;;;;;;20.03;16.00;;;;;;;;;;2614899;54;20474;-76
2023/09/15 17:26:49;;;;;;;14.93;13.97;;;;;;;;;;2614484;54;20407;-74
2023/09/15 17:32:19;;;;;;;15.40;14.60;;;;;;;;;;2615101;54;20404;-75
2023/09/15 17:37:48;;;;;;;13.50;12.77;;;;;;;;;;2612503;54;20375;-75
2023/09/15 17:43:19;;;;;;;14.03;12.90;;;;;;;;;;2614552;54;20944;-77
2023/09/15 17:48:53;;;;;;;14.63;13.77;;;;;;;;;;2613707;54;20412;-78
2023/09/15 17:54:24;;;;;;;14.40;13.27;;;;;;;;;;2612707;54;20391;-75
2023/09/15 17:59:54;;;;;;;13.73;12.20;;;;;;;;;;2613660;54;20460;-77
2023/09/15 18:05:24;;;;;;;13.77;12.37;;;;;;;;;;2613469;54;20374;-77
2023/09/15 18:14:25;;;;;;;13.13;12.20;;;;;;;;;;2613407;54;20418;-80
2023/09/15 18:19:54;;;;;;;17.17;15.60;;;;;;;;;;2615306;54;21055;-78
2023/09/15 18:25:24;;;;;;;14.00;12.70;;;;;;;;;;2613177;54;20416;-80
2023/09/15 18:30:54;;;;;;;16.27;15.07;;;;;;;;;;2613869;54;20896;-77
2023/09/15 18:36:24;;;;;;;13.07;12.17;;;;;;;;;;2613231;54;20388;-76
2023/09/15 18:41:54;;;;;;;14.13;12.47;;;;;;;;;;2612239;54;20407;-77
2023/09/15 18:47:23;;;;;;;13.73;12.60;;;;;;;;;;2612316;54;20378;-76
2023/09/15 18:52:53;;;;;;;13.50;12.20;;;;;;;;;;2616241;54;20416;-76
2023/09/15 18:58:23;;;;;;;16.93;14.47;;;;;;;;;;2616322;54;20476;-77
2023/09/15 19:03:53;;;;;;;15.43;14.03;;;;;;;;;;2615799;54;20375;-77
2023/09/15 19:09:23;;;;;;;16.90;15.47;;;;;;;;;;2614599;54;20412;-78
2023/09/15 19:14:52;;;;;;;19.10;17.40;;;;;;;;;;2616154;54;20434;-76
2023/09/15 19:20:22;;;;;;;22.43;20.13;;;;;;;;;;2615269;54;20379;-76
2023/09/15 19:25:55;;;;;;;21.70;19.37;;;;;;;;;;2617201;54;20395;-76
2023/09/15 19:31:25;;;;;;;22.50;20.30;;;;;;;;;;2616183;54;20415;-77
2023/09/15 19:36:54;;;;;;;18.00;16.30;;;;;;;;;;2615334;54;20394;-75
2023/09/15 19:42:24;;;;;;;18.33;16.40;;;;;;;;;;2614684;39;20844;-76
2023/09/15 19:47:54;;;;;;;14.60;13.40;;;;;;;;;;2615173;46;20490;-77
2023/09/15 19:53:25;;;;;;;16.27;14.60;;;;;;;;;;2615421;54;21026;-76
2023/09/15 19:58:55;;;;;;;16.97;15.27;;;;;;;;;;2614608;54;20387;-76
2023/09/15 20:04:24;;;;;;;19.70;16.77;;;;;;;;;;2613717;54;20426;-76
2023/09/15 20:09:54;;;;;;;16.30;14.70;;;;;;;;;;2615230;54;20427;-76
2023/09/15 20:19:02;;;;;;;16.80;15.10;;;;;;;;;;2615339;54;20997;-79
2023/09/15 20:24:32;;;;;;;16.13;12.63;;;;;;;;;;2615453;54;20419;-76
2023/09/15 20:30:03;;;;;;;12.30;11.20;;;;;;;;;;2615468;54;20411;-77
2023/09/15 20:35:32;;;;;;;13.27;11.70;;;;;;;;;;2615256;54;20404;-76
2023/09/15 20:41:04;;;;;;;15.93;13.30;;;;;;;;;;2615551;54;20412;-77
2023/09/15 20:46:33;;;;;;;14.30;12.90;;;;;;;;;;2615716;39;20756;-76
2023/09/15 20:52:06;;;;;;;15.77;13.47;;;;;;;;;;2616659;54;20375;-76
2023/09/15 20:57:36;;;;;;;17.40;12.97;;;;;;;;;;2616785;54;20386;-76
2023/09/15 21:03:06;;;;;;;11.97;10.13;;;;;;;;;;2615459;54;20410;-76
2023/09/15 21:08:36;;;;;;;16.27;10.73;;;;;;;;;;2615907;54;20484;-77
2023/09/15 21:14:06;;;;;;;9.43;8.47;;;;;;;;;;2615725;54;20539;-77
2023/09/15 21:19:35;;;;;;;11.13;9.10;;;;;;;;;;2615998;54;20427;-76
2023/09/15 21:25:05;;;;;;;10.90;9.80;;;;;;;;;;2614738;54;20394;-77
2023/09/15 21:30:37;;;;;;;9.93;8.87;;;;;;;;;;2615181;54;20374;-77
2023/09/15 21:36:09;;;;;;;9.50;8.70;;;;;;;;;;2615216;54;20374;-76
2023/09/15 21:41:38;;;;;;;9.70;8.70;;;;;;;;;;2615397;39;20833;-76
2023/09/15 21:47:08;;;;;;;11.20;10.00;;;;;;;;;;2615039;54;20390;-76
2023/09/15 21:52:38;;;;;;;11.57;10.47;;;;;;;;;;2615469;54;20439;-77
2023/09/15 21:58:08;;;;;;;11.07;9.97;;;;;;;;;;2613933;54;20619;-77
2023/09/15 22:03:40;;;;;;;14.63;11.30;;;;;;;;;;2615373;54;20375;-75
2023/09/15 22:09:10;;;;;;;14.53;12.37;;;;;;;;;;2611921;54;20427;-75
2023/09/15 22:20:47;;;;;;;14.53;12.40;;;;;;;;;;2613318;54;20982;-78
2023/09/15 22:26:16;;;;;;;16.53;14.23;;;;;;;;;;2614586;54;20391;-76
2023/09/15 22:31:47;;;;;;;16.03;13.30;;;;;;;;;;2615192;54;20423;-77
2023/09/15 22:37:16;;;;;;;16.07;14.47;;;;;;;;;;2614843;54;20408;-75
2023/09/15 22:42:46;;;;;;;15.10;13.80;;;;;;;;;;2615613;46;20399;-77
2023/09/15 22:48:16;;;;;;;18.73;15.43;;;;;;;;;;2615550;54;20407;-79
2023/09/15 22:53:46;;;;;;;15.13;13.73;;;;;;;;;;2615665;54;20386;-76
2023/09/15 22:59:15;;;;;;;16.50;13.53;;;;;;;;;;2616022;54;20408;-76
2023/09/15 23:04:45;;;;;;;14.63;13.33;;;;;;;;;;2615025;54;20426;-83
2023/09/15 23:10:15;;;;;;;14.57;13.17;;;;;;;;;;2616147;54;20419;-82
2023/09/15 23:19:19;;;;;;;22.93;19.00;;;;;;;;;;2616063;54;20406;-84
2023/09/15 23:24:53;;;;;;;17.13;14.07;;;;;;;;;;2616123;54;20786;-84
2023/09/15 23:30:22;;;;;;;14.13;12.60;;;;;;;;;;2616369;54;20382;-82
2023/09/15 23:35:52;;;;;;;14.20;12.70;;;;;;;;;;2616028;54;20378;-83
2023/09/15 23:41:22;;;;;;;19.00;12.80;;;;;;;;;;2615198;54;20391;-80
2023/09/15 23:46:54;;;;;;;13.87;12.50;;;;;;;;;;2616221;54;20386;-82
2023/09/15 23:52:23;;;;;;;15.30;12.33;;;;;;;;;;2615558;54;20379;-84
2023/09/15 23:57:53;;;;;;;15.57;11.53;;;;;;;;;;2613540;54;20475;-83
